KFKA

Fillmore County Airport

Preston, Minnesota, USA
METAR KFKA 212335Z AUTO 07008G14KT 10SM BKN028 BKN041 OVC047 17/13 A2989 RMK AO2 T01650134
Observed Flight Rules
Jun-21 @ 23:35 UTC (17 minutes ago) Marginal Visual Flight Rules
Wind Visibility Clouds
70° at 8 knots
 Gusting to 14 knots
10 miles
  • Broken at 2,800' AGL
  • Broken at 4,100' AGL
  • Overcast at 4,700' AGL
Temperatures Readings
Current 17°C / 63°F
Dewpoint 13°C / 55°F
Humidity 77%
Altimeter 29.89" Hg
Pressure 1012 hPa
Elevation 389
METAR KFKA 212335Z AUTO 07008G14KT 10SM BKN028 BKN041 OVC047 17/13 A2989 RMK AO2 T01650134
Observed Flight Rules
Jun-21 @ 23:35 UTC
(17 minutes ago)
MVFR
Wind Visibility
70° at 8 knots
 Gusting to 14 knots
10 miles
Clouds
  • Broken at 2,800' AGL
  • Broken at 4,100' AGL
  • Overcast at 4,700' AGL
Temperature Dewpoint
17°C / 63°F 13°C / 55°F
Humidity Altimeter Pressure
77% 29.89" Hg 1012 hPa